Time;durP1;ratioP1;P1;durP2;ratioP2;P2;SDS_P1;SDS_P2;PMS_P1;PMS_P2;Temp;Humidity;BMP_temperature;BMP_pressure;BME280_temperature;BME280_humidity;BME280_pressure;Samples;Min_cycle;Max_cycle;Signal;HPM_P1;HPM_P2
2022/03/10 00:01:16;;;;;;;31.70;24.80;;;;;;;1.00;83.59;96356.00;6297762;22;20016;-59
2022/03/10 00:03:42;;;;;;;28.40;24.85;;;;;;;1.01;83.65;96356.88;6298303;22;20422;-59
2022/03/10 00:06:07;;;;;;;31.25;24.50;;;;;;;0.99;84.37;96353.47;6297927;22;20003;-59
2022/03/10 00:08:32;;;;;;;26.48;22.95;;;;;;;0.92;84.38;96360.69;6298057;22;20019;-59
2022/03/10 00:10:58;;;;;;;27.80;24.02;;;;;;;0.90;83.53;96361.66;6298085;22;20474;-59
2022/03/10 00:13:26;;;;;;;25.05;22.33;;;;;;;0.86;83.91;96360.94;6298312;22;20003;-58
2022/03/10 00:15:52;;;;;;;24.13;20.58;;;;;;;0.82;85.16;96357.66;6297918;22;20381;-58
2022/03/10 00:18:17;;;;;;;21.70;19.38;;;;;;;0.76;84.61;96357.06;6298000;22;20010;-59
2022/03/10 00:20:42;;;;;;;23.23;19.48;;;;;;;0.75;84.49;96353.63;6298285;22;20021;-59
2022/03/10 00:23:08;;;;;;;22.80;20.30;;;;;;;0.83;84.53;96358.47;6297970;22;20029;-59
2022/03/10 00:25:33;;;;;;;23.58;19.83;;;;;;;0.80;84.03;96361.22;6297267;22;20003;-57
2022/03/10 00:27:59;;;;;;;24.48;19.23;;;;;;;0.76;84.04;96355.31;6297957;22;19999;-59
2022/03/10 00:30:24;;;;;;;21.33;18.80;;;;;;;0.71;84.35;96363.28;6298242;22;20012;-58
2022/03/10 00:32:52;;;;;;;21.58;19.45;;;;;;;0.72;84.67;96358.94;6297856;22;20004;-58
2022/03/10 00:35:25;;;;;;;22.25;19.27;;;;;;;0.68;84.60;96368.63;6297329;22;20003;-58
2022/03/10 00:37:50;;;;;;;26.27;19.88;;;;;;;0.67;84.46;96368.66;6297862;22;20023;-59
2022/03/10 00:40:16;;;;;;;22.58;20.08;;;;;;;0.60;84.96;96372.44;6297813;22;20064;-59
2022/03/10 00:42:43;;;;;;;20.38;18.27;;;;;;;0.55;85.05;96372.63;6297794;22;20034;-58
2022/03/10 00:45:09;;;;;;;21.20;18.73;;;;;;;0.59;84.22;96373.34;6297889;22;20007;-59
2022/03/10 00:47:35;;;;;;;22.13;19.02;;;;;;;0.50;85.26;96371.97;6297904;22;20022;-59
2022/03/10 00:50:01;;;;;;;20.00;16.30;;;;;;;0.48;85.28;96377.19;6270667;22;20031;-59
2022/03/10 00:52:27;;;;;;;16.85;15.15;;;;;;;0.47;85.72;96367.75;6297791;22;20014;-59
2022/03/10 00:54:53;;;;;;;17.17;15.43;;;;;;;0.51;86.76;96374.47;6297349;22;19995;-58
2022/03/10 00:57:18;;;;;;;18.77;15.48;;;;;;;0.52;87.15;96377.94;6297962;22;20011;-56
2022/03/10 00:59:43;;;;;;;17.33;15.48;;;;;;;0.56;86.42;96377.75;6297934;22;19999;-59
2022/03/10 01:02:09;;;;;;;17.02;15.27;;;;;;;0.56;86.46;96367.38;6296453;22;20011;-59
2022/03/10 01:04:34;;;;;;;18.55;15.32;;;;;;;0.54;87.01;96373.53;6297072;22;20486;-59
2022/03/10 01:07:00;;;;;;;18.58;16.15;;;;;;;0.47;87.70;96366.91;6298291;22;20007;-59
2022/03/10 01:09:26;;;;;;;16.73;14.93;;;;;;;0.46;86.40;96360.06;6299150;22;20011;-58
2022/03/10 01:11:51;;;;;;;16.27;14.57;;;;;;;0.49;87.45;96365.09;6298878;22;20011;-59
2022/03/10 01:14:17;;;;;;;17.73;14.75;;;;;;;0.48;87.50;96359.06;6299417;22;20043;-58
2022/03/10 01:16:42;;;;;;;16.75;15.00;;;;;;;0.43;87.31;96359.25;6298606;22;20055;-59
2022/03/10 01:19:08;;;;;;;18.27;15.27;;;;;;;0.34;88.19;96362.22;6298602;22;20422;-59
2022/03/10 01:21:34;;;;;;;17.23;15.52;;;;;;;0.25;88.20;96362.63;6298356;22;20030;-58
2022/03/10 01:23:59;;;;;;;16.33;14.52;;;;;;;0.35;86.68;96360.50;6298702;22;19999;-59
2022/03/10 01:26:25;;;;;;;23.52;19.67;;;;;;;0.34;87.03;96356.22;6298879;22;20006;-59
2022/03/10 01:28:50;;;;;;;23.90;20.40;;;;;;;0.36;87.71;96362.19;6298636;22;20001;-59
2022/03/10 01:31:16;;;;;;;22.67;19.23;;;;;;;0.31;88.55;96364.09;6298566;22;20011;-58
2022/03/10 01:33:42;;;;;;;22.15;19.38;;;;;;;0.27;88.05;96361.63;6299492;22;19999;-58
2022/03/10 01:36:07;;;;;;;21.17;18.83;;;;;;;0.26;87.62;96365.13;6298861;22;20003;-58
2022/03/10 01:38:32;;;;;;;21.70;19.17;;;;;;;0.21;87.48;96361.03;6298506;22;20051;-59
2022/03/10 01:40:58;;;;;;;19.08;17.02;;;;;;;0.17;88.62;96362.91;6298909;22;20026;-58
2022/03/10 01:43:23;;;;;;;21.15;18.25;;;;;;;0.17;88.41;96368.09;6298719;22;19999;-58
2022/03/10 01:45:49;;;;;;;21.73;19.58;;;;;;;0.20;88.07;96360.19;6298679;22;20107;-58
2022/03/10 01:48:14;;;;;;;24.17;19.55;;;;;;;0.20;88.10;96365.38;6298453;22;20462;-59
2022/03/10 01:50:39;;;;;;;20.98;18.40;;;;;;;0.17;87.71;96373.28;6298861;22;20391;-57
2022/03/10 01:53:05;;;;;;;23.40;19.60;;;;;;;0.17;87.19;96370.69;6298211;22;20320;-59
2022/03/10 01:55:31;;;;;;;25.08;19.98;;;;;;;0.17;87.08;96365.50;6298195;22;20007;-59
2022/03/10 01:57:58;;;;;;;21.80;18.23;;;;;;;0.10;87.14;96364.03;6298234;22;20003;-59
2022/03/10 02:00:23;;;;;;;18.00;16.08;;;;;;;0.06;87.86;96368.53;6298315;22;20052;-59
2022/03/10 02:02:49;;;;;;;19.50;15.90;;;;;;;0.04;87.74;96361.69;6298802;22;20090;-58
2022/03/10 02:05:14;;;;;;;21.30;17.67;;;;;;;0.03;87.08;96362.63;6298129;22;20039;-59
2022/03/10 02:10:27;;;;;;;17.38;15.57;;;;;;;-0.03;87.22;96364.53;6298211;22;20450;-59
2022/03/10 02:12:54;;;;;;;17.02;14.27;;;;;;;-0.08;87.63;96361.31;6273163;22;20074;-59
2022/03/10 02:18:10;;;;;;;16.92;15.13;;;;;;;-0.10;87.09;96357.94;6299650;22;20133;-59
2022/03/10 02:20:37;;;;;;;15.63;14.02;;;;;;;-0.10;86.77;96363.09;6300228;22;20583;-58
2022/03/10 02:23:04;;;;;;;15.63;13.57;;;;;;;-0.13;87.43;96363.19;6299688;22;20042;-59
2022/03/10 02:25:30;;;;;;;15.55;14.10;;;;;;;-0.12;87.51;96351.94;6299870;22;20011;-58
2022/03/10 02:27:56;;;;;;;17.05;14.20;;;;;;;-0.11;87.99;96350.22;6299678;22;20324;-57
2022/03/10 02:30:23;;;;;;;15.77;14.20;;;;;;;-0.11;86.77;96350.22;6299951;22;20418;-58
2022/03/10 02:32:49;;;;;;;41.35;27.27;;;;;;;-0.09;86.77;96343.22;6299686;22;20011;-58
2022/03/10 02:35:16;;;;;;;35.22;24.20;;;;;;;-0.06;87.08;96341.38;6300078;22;20499;-59
2022/03/10 02:37:43;;;;;;;25.00;19.15;;;;;;;-0.12;86.72;96341.59;6300141;22;20003;-58
2022/03/10 02:40:10;;;;;;;23.13;16.85;;;;;;;-0.25;87.12;96340.41;6300159;22;20033;-59
2022/03/10 02:42:35;;;;;;;30.00;19.75;;;;;;;-0.23;87.03;96343.78;6299890;22;20015;-58
2022/03/10 02:45:02;;;;;;;32.88;23.05;;;;;;;-0.24;87.23;96339.50;6299450;22;20007;-58
2022/03/10 02:47:27;;;;;;;32.33;20.75;;;;;;;-0.21;86.44;96340.22;6300129;22;20082;-58
2022/03/10 02:49:53;;;;;;;26.20;20.60;;;;;;;-0.19;87.13;96346.19;6299943;22;20015;-58
2022/03/10 02:52:18;;;;;;;22.80;17.80;;;;;;;-0.20;86.09;96341.06;6300104;22;20426;-59
2022/03/10 02:54:44;;;;;;;21.75;17.27;;;;;;;-0.24;86.91;96339.50;6300119;22;20003;-59
2022/03/10 02:57:11;;;;;;;18.17;16.17;;;;;;;-0.27;87.03;96344.78;6299881;22;20003;-58
2022/03/10 02:59:36;;;;;;;22.35;17.30;;;;;;;-0.31;87.09;96342.34;6299837;22;20011;-59
2022/03/10 03:02:02;;;;;;;26.70;17.58;;;;;;;-0.36;87.23;96333.88;6272986;22;20006;-58
2022/03/10 03:04:28;;;;;;;22.77;17.70;;;;;;;-0.35;87.32;96335.56;6272705;22;20034;-59
2022/03/10 03:06:53;;;;;;;19.58;15.23;;;;;;;-0.35;87.71;96342.50;6299797;22;20081;-58
2022/03/10 03:09:19;;;;;;;24.23;16.88;;;;;;;-0.39;86.72;96344.34;6272390;22;20059;-59
2022/03/10 03:11:44;;;;;;;19.65;16.33;;;;;;;-0.45;87.13;96342.00;6299260;22;20082;-59
2022/03/10 03:14:10;;;;;;;20.83;16.20;;;;;;;-0.47;87.53;96338.63;6300181;22;20003;-57
2022/03/10 03:16:35;;;;;;;17.75;15.52;;;;;;;-0.45;87.58;96342.00;6300006;22;20007;-58
2022/03/10 03:19:01;;;;;;;17.13;14.93;;;;;;;-0.48;87.81;96348.13;6299921;22;20059;-58
2022/03/10 03:21:26;;;;;;;17.48;14.00;;;;;;;-0.54;87.60;96340.59;6299981;22;20075;-58
2022/03/10 03:23:52;;;;;;;18.23;14.35;;;;;;;-0.54;87.09;96347.53;6299558;22;20011;-58
2022/03/10 03:26:17;;;;;;;17.17;15.32;;;;;;;-0.57;87.45;96343.31;6299755;22;20319;-59
2022/03/10 03:28:43;;;;;;;16.00;14.32;;;;;;;-0.61;87.53;96345.16;6272250;22;20417;-59
2022/03/10 03:31:12;;;;;;;19.48;16.10;;;;;;;-0.64;88.69;96341.88;6299874;22;20007;-58
2022/03/10 03:33:38;;;;;;;17.02;15.23;;;;;;;-0.65;88.09;96345.34;6300176;22;20128;-59
2022/03/10 03:36:04;;;;;;;17.13;15.32;;;;;;;-0.62;89.39;96345.22;6299486;22;20048;-58
2022/03/10 03:38:29;;;;;;;19.60;15.63;;;;;;;-0.63;88.67;96349.56;6299692;22;20342;-59
2022/03/10 03:40:55;;;;;;;15.77;14.15;;;;;;;-0.60;88.21;96348.59;6299371;22;19999;-59
2022/03/10 03:43:20;;;;;;;16.40;14.45;;;;;;;-0.54;87.80;96343.19;6299745;22;20010;-57
2022/03/10 03:45:45;;;;;;;18.33;16.25;;;;;;;-0.64;88.44;96347.88;6299839;22;20442;-58
2022/03/10 03:48:11;;;;;;;18.92;15.57;;;;;;;-0.70;89.52;96350.69;6299728;22;20495;-58
2022/03/10 03:50:36;;;;;;;18.80;14.82;;;;;;;-0.67;89.34;96352.28;6299928;22;20066;-58
2022/03/10 03:53:02;;;;;;;20.17;15.55;;;;;;;-0.66;89.44;96352.25;6299828;22;20063;-59
2022/03/10 03:55:28;;;;;;;17.58;15.55;;;;;;;-0.66;89.49;96344.50;6299723;22;20012;-58
2022/03/10 03:57:53;;;;;;;17.15;14.30;;;;;;;-0.66;89.14;96354.84;6299497;22;20007;-58
2022/03/10 04:00:19;;;;;;;17.65;15.70;;;;;;;-0.65;88.87;96350.53;6299369;22;20063;-58
2022/03/10 04:02:47;;;;;;;16.38;14.68;;;;;;;-0.72;88.95;96342.97;6299756;22;20003;-58
2022/03/10 04:05:13;;;;;;;18.35;15.05;;;;;;;-0.75;88.61;96356.03;6299284;22;20015;-58
2022/03/10 04:07:38;;;;;;;16.90;15.10;;;;;;;-0.78;88.96;96356.13;6299851;22;20004;-57
2022/03/10 04:10:07;;;;;;;18.83;15.90;;;;;;;-0.82;88.95;96346.81;6299489;22;20005;-57
2022/03/10 04:12:33;;;;;;;19.13;14.88;;;;;;;-0.82;88.86;96357.16;6299538;22;20015;-58
2022/03/10 04:14:59;;;;;;;18.95;15.60;;;;;;;-0.84;89.04;96350.34;6299599;22;20039;-56
2022/03/10 04:17:25;;;;;;;16.13;14.35;;;;;;;-0.85;88.92;96351.25;6299835;22;20026;-58
2022/03/10 04:19:50;;;;;;;17.23;15.43;;;;;;;-0.85;88.38;96364.16;6272224;22;20346;-57
2022/03/10 04:22:16;;;;;;;17.25;15.45;;;;;;;-0.87;88.31;96361.66;6299516;22;20018;-59
2022/03/10 04:24:41;;;;;;;17.88;15.63;;;;;;;-0.91;89.01;96354.88;6299090;22;20003;-59
2022/03/10 04:27:06;;;;;;;17.80;15.82;;;;;;;-0.94;89.48;96355.84;6272080;22;20007;-59
2022/03/10 04:29:32;;;;;;;17.30;15.60;;;;;;;-0.99;89.02;96352.59;6299429;22;20018;-58
2022/03/10 04:31:58;;;;;;;17.58;15.70;;;;;;;-1.01;89.02;96354.38;6271634;22;20090;-59
2022/03/10 04:34:23;;;;;;;18.70;16.05;;;;;;;-1.01;89.17;96359.53;6299204;22;20324;-58
2022/03/10 04:36:49;;;;;;;16.70;15.10;;;;;;;-1.02;88.64;96352.69;6299661;22;20078;-59
2022/03/10 04:39:14;;;;;;;18.00;15.13;;;;;;;-1.08;88.62;96358.94;6299259;22;20003;-58
2022/03/10 04:41:39;;;;;;;14.80;13.20;;;;;;;-1.07;88.61;96358.03;6300189;22;20347;-59
2022/03/10 04:44:05;;;;;;;16.75;14.40;;;;;;;-1.15;89.48;96357.44;6302763;22;20035;-58
2022/03/10 04:46:31;;;;;;;19.30;14.75;;;;;;;-1.13;89.16;96365.16;6302296;22;20007;-59
2022/03/10 04:48:56;;;;;;;16.08;14.18;;;;;;;-1.10;90.35;96352.97;6302811;22;20719;-59
2022/03/10 04:51:21;;;;;;;19.55;15.25;;;;;;;-1.08;90.89;96355.50;6302523;22;20007;-58
2022/03/10 04:53:47;;;;;;;16.50;14.40;;;;;;;-1.06;91.68;96357.13;6302537;22;20079;-59
2022/03/10 04:56:13;;;;;;;16.23;14.23;;;;;;;-1.06;91.47;96351.97;6302732;22;20392;-59
2022/03/10 04:58:39;;;;;;;16.13;14.50;;;;;;;-1.06;91.26;96348.53;6302495;22;20010;-57
2022/03/10 05:01:05;;;;;;;18.35;16.45;;;;;;;-1.07;92.13;96354.59;6302437;22;20003;-59
2022/03/10 05:03:33;;;;;;;18.55;14.98;;;;;;;-1.07;91.89;96347.69;6302410;22;20494;-59
2022/03/10 05:06:00;;;;;;;16.60;14.90;;;;;;;-1.14;92.36;96346.22;6302352;22;20014;-58
2022/03/10 05:08:26;;;;;;;21.40;15.20;;;;;;;-1.19;92.54;96348.97;6302841;22;20003;-58
2022/03/10 05:10:51;;;;;;;19.58;15.75;;;;;;;-1.20;91.74;96349.88;6302454;22;20075;-57
2022/03/10 05:13:16;;;;;;;17.67;15.57;;;;;;;-1.21;92.05;96345.59;6302423;22;20014;-57
2022/03/10 05:15:43;;;;;;;16.15;14.55;;;;;;;-1.22;93.31;96346.47;6301633;22;20030;-58
2022/03/10 05:18:08;;;;;;;18.45;16.00;;;;;;;-1.28;92.93;96349.28;6302425;22;20315;-57
2022/03/10 05:20:34;;;;;;;17.98;16.17;;;;;;;-1.28;93.00;96349.28;6301888;22;20010;-56
2022/03/10 05:23:02;;;;;;;17.42;14.95;;;;;;;-1.23;92.48;96343.97;6274946;22;20003;-56
2022/03/10 05:25:35;;;;;;;17.55;15.43;;;;;;;-1.21;92.31;96348.19;6302218;22;20010;-55
2022/03/10 05:28:01;;;;;;;15.90;14.30;;;;;;;-1.22;91.64;96345.63;6302550;22;19999;-58
2022/03/10 05:30:27;;;;;;;20.42;14.80;;;;;;;-1.25;92.49;96348.34;6302386;22;20010;-58
2022/03/10 05:32:52;;;;;;;19.90;16.02;;;;;;;-1.28;94.11;96340.69;6302131;22;20011;-58
2022/03/10 05:35:18;;;;;;;16.15;14.52;;;;;;;-1.33;93.38;96346.00;6302231;22;20450;-58
2022/03/10 05:37:45;;;;;;;15.32;13.85;;;;;;;-1.35;92.83;96345.22;6302094;22;20015;-57
2022/03/10 05:40:13;;;;;;;15.80;14.15;;;;;;;-1.35;92.30;96337.47;6302142;22;20011;-56
2022/03/10 05:42:40;;;;;;;17.38;15.40;;;;;;;-1.35;93.18;96337.47;6302442;22;20007;-58
2022/03/10 05:45:07;;;;;;;16.88;14.77;;;;;;;-1.33;92.33;96333.09;6301570;22;20003;-58
2022/03/10 05:47:32;;;;;;;16.58;14.63;;;;;;;-1.35;92.49;96329.72;6302700;22;20067;-58
2022/03/10 05:49:58;;;;;;;22.10;16.27;;;;;;;-1.34;92.57;96331.41;6301936;22;20376;-58
2022/03/10 05:52:23;;;;;;;19.00;15.25;;;;;;;-1.32;91.83;96327.88;6302068;22;20013;-56
2022/03/10 05:54:49;;;;;;;18.58;16.58;;;;;;;-1.31;92.24;96329.56;6299877;22;19999;-58
2022/03/10 05:57:14;;;;;;;16.80;15.07;;;;;;;-1.30;91.35;96327.81;6300008;22;20048;-57
2022/03/10 05:59:39;;;;;;;16.30;14.68;;;;;;;-1.30;90.92;96343.31;6300245;22;20010;-57
2022/03/10 06:02:05;;;;;;;20.27;16.73;;;;;;;-1.36;91.30;96338.38;6300305;22;20003;-57
2022/03/10 06:04:30;;;;;;;16.80;15.00;;;;;;;-1.38;90.73;96350.50;6300156;22;20010;-57
2022/03/10 06:06:55;;;;;;;24.83;16.70;;;;;;;-1.39;91.00;96357.41;6300060;22;20439;-57
2022/03/10 06:09:21;;;;;;;23.42;16.70;;;;;;;-1.37;91.18;96354.78;6300472;22;20102;-58
2022/03/10 06:11:46;;;;;;;17.50;15.70;;;;;;;-1.34;91.31;96350.31;6299941;22;20019;-59
2022/03/10 06:14:11;;;;;;;19.27;16.05;;;;;;;-1.31;91.55;96354.56;6272404;22;20064;-56
2022/03/10 06:16:38;;;;;;;21.73;17.02;;;;;;;-1.36;91.39;96359.03;6298849;22;20003;-58
2022/03/10 06:19:04;;;;;;;20.83;17.67;;;;;;;-1.36;90.98;96353.88;6298990;22;20150;-58
2022/03/10 06:21:29;;;;;;;20.15;18.02;;;;;;;-1.31;91.54;96349.38;6298903;22;20034;-58
2022/03/10 06:23:55;;;;;;;24.52;18.48;;;;;;;-1.30;92.04;96351.06;6299792;22;20059;-57
2022/03/10 06:26:20;;;;;;;28.13;19.15;;;;;;;-1.28;91.70;96348.44;6299729;22;20030;-57
2022/03/10 06:28:46;;;;;;;22.23;18.15;;;;;;;-1.25;91.95;96346.59;6300374;22;20015;-58
2022/03/10 06:31:12;;;;;;;21.85;18.67;;;;;;;-1.21;91.86;96348.19;6299013;22;20011;-58
2022/03/10 06:33:37;;;;;;;25.08;18.88;;;;;;;-1.18;91.55;96348.06;6300060;22;20007;-58
2022/03/10 06:36:04;;;;;;;20.85;18.00;;;;;;;-1.14;92.11;96347.97;6299902;22;19999;-57
2022/03/10 06:38:30;;;;;;;20.00;17.83;;;;;;;-1.13;91.49;96349.66;6299130;22;20011;-58
2022/03/10 06:40:55;;;;;;;23.00;16.98;;;;;;;-1.14;91.47;96347.97;6298541;22;20074;-58
2022/03/10 06:43:21;;;;;;;19.40;16.80;;;;;;;-1.16;91.44;96348.00;6298745;22;20003;-57
2022/03/10 06:45:46;;;;;;;19.98;17.27;;;;;;;-1.19;91.13;96351.56;6299738;22;20487;-56
2022/03/10 06:48:11;;;;;;;20.63;16.25;;;;;;;-1.17;90.20;96349.75;6299770;22;20007;-58
2022/03/10 06:50:38;;;;;;;23.60;19.88;;;;;;;-1.13;90.44;96347.06;6300159;22;20082;-59
2022/03/10 06:53:04;;;;;;;22.90;19.20;;;;;;;-1.10;90.30;96345.22;6299883;22;20030;-61
2022/03/10 06:55:29;;;;;;;21.60;17.38;;;;;;;-1.07;90.24;96347.69;6299981;22;20004;-59
2022/03/10 06:57:55;;;;;;;21.23;18.25;;;;;;;-1.00;90.45;96340.53;6298885;22;20003;-59
2022/03/10 07:00:21;;;;;;;23.08;19.40;;;;;;;-0.97;89.70;96352.53;6298410;22;20011;-60
2022/03/10 07:02:47;;;;;;;23.67;21.17;;;;;;;-0.95;90.04;96348.13;6298020;22;20439;-60
2022/03/10 07:05:12;;;;;;;25.67;19.75;;;;;;;-0.96;90.81;96349.91;6298841;22;20041;-59
2022/03/10 07:07:38;;;;;;;26.33;20.23;;;;;;;-0.95;91.29;96345.56;6300181;22;20015;-58
2022/03/10 07:10:04;;;;;;;26.13;19.95;;;;;;;-0.90;91.13;96344.50;6299567;22;20303;-59
2022/03/10 07:12:33;;;;;;;22.30;19.63;;;;;;;-0.83;91.10;96344.25;6299714;22;20016;-58
2022/03/10 07:14:58;;;;;;;23.27;20.83;;;;;;;-0.81;91.33;96345.91;6299799;22;20059;-59
2022/03/10 07:17:23;;;;;;;23.70;21.20;;;;;;;-0.76;91.69;96350.91;6299511;22;20042;-58
2022/03/10 07:19:49;;;;;;;29.80;22.67;;;;;;;-0.72;91.11;96350.72;6299942;22;20003;-57
2022/03/10 07:22:18;;;;;;;24.65;21.85;;;;;;;-0.58;90.69;96349.38;6299195;22;20450;-59
2022/03/10 07:24:44;;;;;;;26.02;22.33;;;;;;;-0.44;90.27;96356.63;6300047;22;20446;-58
2022/03/10 07:27:10;;;;;;;31.27;22.13;;;;;;;-0.40;89.70;96359.94;6300002;22;20007;-57
2022/03/10 07:29:35;;;;;;;28.92;23.25;;;;;;;-0.42;89.80;96367.75;6299701;22;20007;-54
2022/03/10 07:32:00;;;;;;;26.50;22.38;;;;;;;-0.46;89.29;96377.38;6299692;22;19999;-53
2022/03/10 07:34:26;;;;;;;32.08;24.67;;;;;;;-0.41;88.96;96368.63;6297484;22;20048;-49
2022/03/10 07:36:51;;;;;;;31.65;25.73;;;;;;;-0.42;89.70;96372.94;6297050;22;20026;-52
2022/03/10 07:39:17;;;;;;;28.65;23.65;;;;;;;-0.38;89.79;96374.50;6297609;22;20714;-54
2022/03/10 07:41:42;;;;;;;31.33;23.35;;;;;;;-0.33;89.65;96376.91;6297380;22;20068;-54
2022/03/10 07:44:07;;;;;;;26.30;23.42;;;;;;;-0.29;89.67;96378.47;6296147;22;20711;-55
2022/03/10 07:46:33;;;;;;;32.42;23.08;;;;;;;-0.24;90.07;96376.56;6297348;22;20013;-54
2022/03/10 07:48:58;;;;;;;28.77;23.08;;;;;;;-0.10;89.59;96380.38;6299376;22;20007;-53
2022/03/10 07:51:25;;;;;;;26.60;21.38;;;;;;;0.73;88.51;96377.94;6298808;22;20003;-52
2022/03/10 07:53:50;;;;;;;30.73;22.77;;;;;;;1.73;84.90;96377.88;6298724;22;19999;-54
2022/03/10 07:56:16;;;;;;;37.80;26.08;;;;;;;2.58;81.96;96379.06;6299098;22;20051;-54
2022/03/10 07:58:41;;;;;;;32.95;20.88;;;;;;;2.93;78.34;96367.81;6299266;22;20011;-54
2022/03/10 08:01:07;;;;;;;27.80;19.73;;;;;;;3.20;77.65;96371.66;6298620;22;20012;-55
2022/03/10 08:03:32;;;;;;;22.20;17.85;;;;;;;3.51;76.26;96377.88;6298203;22;20396;-55
2022/03/10 08:05:58;;;;;;;22.70;19.05;;;;;;;3.69;76.71;96373.44;6297575;22;20007;-55
2022/03/10 08:08:23;;;;;;;39.28;21.20;;;;;;;3.91;75.07;96369.66;6299030;22;20016;-54
2022/03/10 08:10:48;;;;;;;35.53;23.27;;;;;;;4.06;75.38;96366.22;6297572;22;20026;-55
2022/03/10 08:13:14;;;;;;;30.33;22.55;;;;;;;4.51;74.53;96362.88;6297556;22;20063;-54
2022/03/10 08:15:43;;;;;;;24.65;18.27;;;;;;;5.09;72.71;96363.84;6297599;22;20098;-54
2022/03/10 08:18:09;;;;;;;21.77;16.40;;;;;;;5.45;71.10;96359.09;6298227;22;20031;-54
2022/03/10 08:20:34;;;;;;;38.13;16.83;;;;;;;5.76;69.08;96356.38;6298766;22;20007;-53
2022/03/10 08:22:59;;;;;;;23.38;15.32;;;;;;;6.01;68.92;96351.31;6298820;22;20006;-51
2022/03/10 08:25:25;;;;;;;16.52;14.82;;;;;;;6.04;67.80;96357.28;6298005;22;20523;-54
2022/03/10 08:27:50;;;;;;;18.30;16.00;;;;;;;6.26;67.83;96347.13;6271642;22;20003;-53
2022/03/10 08:30:16;;;;;;;22.88;15.80;;;;;;;6.55;66.87;96349.63;6297301;22;20015;-54
2022/03/10 08:32:45;;;;;;;17.10;15.02;;;;;;;6.50;66.03;96343.84;6298044;22;20003;-51
2022/03/10 08:35:12;;;;;;;15.23;12.02;;;;;;;6.78;59.62;96341.19;6298406;22;20071;-54
2022/03/10 08:37:38;;;;;;;12.70;10.65;;;;;;;6.81;54.38;96338.34;6298049;22;19999;-54
2022/03/10 08:40:05;;;;;;;12.38;10.07;;;;;;;6.96;53.89;96333.88;6298532;22;20027;-53
2022/03/10 08:42:30;;;;;;;12.75;11.07;;;;;;;7.03;56.92;96329.91;6271608;22;20347;-55
2022/03/10 08:44:55;;;;;;;14.23;11.63;;;;;;;7.28;55.03;96342.16;6298092;22;20018;-50
2022/03/10 08:47:21;;;;;;;12.73;10.93;;;;;;;7.39;53.19;96324.88;6297857;22;20426;-53
2022/03/10 08:49:46;;;;;;;13.73;11.20;;;;;;;7.39;52.21;96325.69;6298595;22;20003;-51
2022/03/10 08:52:12;;;;;;;14.88;10.18;;;;;;;7.41;53.88;96330.84;6298868;22;20043;-51
2022/03/10 08:54:37;;;;;;;11.40;10.13;;;;;;;7.41;50.86;96315.13;6298179;22;20003;-54
2022/03/10 08:57:03;;;;;;;15.55;10.52;;;;;;;7.59;51.09;96320.84;6298396;22;20015;-51
2022/03/10 08:59:28;;;;;;;12.75;9.93;;;;;;;7.94;51.01;96322.75;6298104;22;20346;-52
2022/03/10 09:01:54;;;;;;;14.52;9.80;;;;;;;8.24;48.76;96307.53;6298754;22;19999;-52
2022/03/10 09:04:20;;;;;;;14.27;9.95;;;;;;;8.41;48.79;96299.28;6297451;22;20036;-54
2022/03/10 09:06:46;;;;;;;13.57;9.82;;;;;;;8.39;53.20;96300.31;6296906;22;20003;-54
2022/03/10 09:09:11;;;;;;;11.50;8.98;;;;;;;8.36;49.39;96297.94;6297978;22;20048;-53
2022/03/10 09:11:38;;;;;;;10.98;8.18;;;;;;;8.40;46.24;96297.59;6297976;22;20022;-52
2022/03/10 09:14:04;;;;;;;13.35;10.10;;;;;;;8.30;46.92;96300.06;6298659;22;20034;-54
2022/03/10 09:16:29;;;;;;;10.38;9.13;;;;;;;8.28;45.59;96288.00;6297867;22;20439;-53
2022/03/10 09:18:55;;;;;;;9.05;7.82;;;;;;;8.55;43.51;96282.53;6298681;22;20004;-54
2022/03/10 09:21:20;;;;;;;11.70;9.18;;;;;;;8.59;43.38;96283.09;6297625;22;20007;-54
2022/03/10 09:23:46;;;;;;;10.20;9.20;;;;;;;8.57;43.65;96275.38;6298003;22;20007;-49
2022/03/10 09:26:11;;;;;;;14.90;9.38;;;;;;;8.79;43.69;96273.75;6297148;22;20056;-50
2022/03/10 09:28:37;;;;;;;10.60;9.05;;;;;;;8.64;44.29;96278.38;6299153;22;20003;-52
2022/03/10 09:31:03;;;;;;;12.35;9.25;;;;;;;8.81;43.75;96271.00;6272126;22;19999;-50
2022/03/10 09:33:29;;;;;;;9.10;8.18;;;;;;;9.01;42.20;96275.56;6299124;22;19999;-53
2022/03/10 09:35:56;;;;;;;11.48;8.55;;;;;;;9.24;41.88;96269.50;6298957;22;19999;-52
2022/03/10 09:38:21;;;;;;;10.38;8.73;;;;;;;9.28;41.74;96270.91;6299682;22;20461;-52
2022/03/10 09:40:47;;;;;;;11.88;8.98;;;;;;;9.31;41.18;96263.66;6299303;22;20007;-49
2022/03/10 09:43:12;;;;;;;8.65;7.43;;;;;;;9.64;39.96;96271.63;6299615;22;19995;-53
2022/03/10 09:45:39;;;;;;;9.45;8.50;;;;;;;9.66;41.07;96269.72;6298778;22;20335;-53
2022/03/10 09:48:04;;;;;;;13.25;8.55;;;;;;;9.98;40.42;96268.09;6299547;22;20004;-52
2022/03/10 09:50:30;;;;;;;11.45;9.43;;;;;;;10.27;39.07;96268.31;6298917;22;20060;-51
2022/03/10 09:52:55;;;;;;;12.02;9.20;;;;;;;10.20;38.89;96274.22;6300165;22;20003;-50
2022/03/10 09:55:21;;;;;;;8.55;7.75;;;;;;;9.85;38.76;96262.97;6299152;22;20014;-50
2022/03/10 09:57:48;;;;;;;10.63;9.55;;;;;;;10.17;38.51;96262.16;6299773;22;20003;-50
2022/03/10 10:00:16;;;;;;;10.23;9.15;;;;;;;10.43;38.27;96264.47;6299857;22;20014;-51
2022/03/10 10:02:44;;;;;;;9.70;8.80;;;;;;;10.64;37.21;96268.91;6299712;22;20014;-51
2022/03/10 10:05:30;;;;;;;11.27;9.27;;;;;;;10.78;37.08;96263.31;6299079;22;20052;-52
2022/03/10 10:08:05;;;;;;;;;;;;;;;10.85;36.81;96261.84;6299871;22;20007;-52
2022/03/10 10:10:32;;;;;;;15.15;9.55;;;;;;;10.68;37.43;96260.63;6298844;22;20353;-50
2022/03/10 10:12:58;;;;;;;9.10;8.20;;;;;;;11.42;37.17;96258.78;6299749;22;20070;-53
2022/03/10 10:15:23;;;;;;;10.98;8.80;;;;;;;11.51;35.10;96251.03;6298881;22;20473;-48
2022/03/10 10:17:58;;;;;;;10.75;8.27;;;;;;;11.84;35.83;96251.69;6299297;22;20019;-53
2022/03/10 10:20:23;;;;;;;9.35;8.45;;;;;;;12.18;34.33;96251.31;6299566;22;20342;-51
2022/03/10 10:22:50;;;;;;;9.93;8.80;;;;;;;12.31;33.68;96248.41;6272111;22;20012;-54
2022/03/10 10:25:23;;;;;;;9.93;8.90;;;;;;;12.25;34.34;96246.34;6299097;22;20381;-50
2022/03/10 10:27:49;;;;;;;10.80;8.50;;;;;;;12.24;33.79;96245.47;6299851;22;20427;-48
2022/03/10 10:30:15;;;;;;;9.70;6.45;;;;;;;12.22;32.89;96239.50;6298665;22;20087;-52
2022/03/10 10:32:44;;;;;;;11.68;8.90;;;;;;;11.57;35.65;96232.03;6299409;22;20014;-52
2022/03/10 10:35:10;;;;;;;11.52;7.97;;;;;;;11.85;35.42;96232.25;6298874;22;20043;-51
2022/03/10 10:37:39;;;;;;;13.82;8.25;;;;;;;12.17;34.50;96228.53;6299216;22;20000;-52
2022/03/10 10:40:06;;;;;;;9.68;8.13;;;;;;;12.56;35.10;96225.03;6298759;22;20002;-52
2022/03/10 10:42:40;;;;;;;10.88;9.02;;;;;;;12.89;33.68;96226.34;6299587;22;20011;-52
2022/03/10 10:45:30;;;;;;;11.25;8.25;;;;;;;13.33;32.37;96228.44;6299399;22;20095;-54
2022/03/10 10:48:06;;;;;;;14.23;9.63;;;;;;;13.42;33.19;96221.44;6272263;22;20355;-51
2022/03/10 10:50:34;;;;;;;11.05;9.65;;;;;;;13.44;32.78;96219.53;6298945;22;20020;-53
2022/03/10 10:53:00;;;;;;;17.73;9.88;;;;;;;13.90;32.45;96213.41;6299997;22;19995;-52
2022/03/10 10:55:39;;;;;;;13.50;10.55;;;;;;;13.97;33.04;96211.00;6298919;22;20085;-49
2022/03/10 10:58:06;;;;;;;14.13;9.80;;;;;;;14.59;32.68;96202.25;6299345;22;19999;-54
2022/03/10 11:00:42;;;;;;;13.73;9.40;;;;;;;14.92;31.65;96199.00;6298482;22;20123;-53
2022/03/10 11:03:31;;;;;;;13.07;10.35;;;;;;;14.81;32.38;96197.44;6300044;22;20006;-50
2022/03/10 11:05:58;;;;;;;11.13;9.70;;;;;;;15.32;30.56;96189.59;6297316;22;20007;-52
2022/03/10 11:08:26;;;;;;;11.70;9.68;;;;;;;14.58;32.22;96196.09;6297633;22;20000;-51
2022/03/10 11:10:53;;;;;;;13.75;10.25;;;;;;;14.07;32.72;96187.91;6297232;22;20012;-50
2022/03/10 11:13:19;;;;;;;12.10;10.23;;;;;;;14.26;32.66;96183.44;6298472;22;20007;-54
2022/03/10 11:15:46;;;;;;;16.58;10.27;;;;;;;14.79;32.61;96184.34;6300026;22;20083;-51
2022/03/10 11:18:13;;;;;;;14.00;10.57;;;;;;;15.13;31.26;96178.22;6299758;22;20067;-54
2022/03/10 11:20:43;;;;;;;13.77;10.38;;;;;;;15.39;30.72;96176.50;6300718;22;20003;-54
2022/03/10 11:23:11;;;;;;;11.75;9.88;;;;;;;15.01;31.22;96172.38;6299906;22;20060;-53